createdAt,value
2019-03-08T00:02:08.341Z,0.30
2019-03-08T00:04:36.539Z,0.40
2019-03-08T00:07:04.795Z,0.40
2019-03-08T00:09:32.930Z,0.53
2019-03-08T00:12:01.210Z,0.23
2019-03-08T00:14:29.452Z,0.35
2019-03-08T00:16:58.599Z,0.60
2019-03-08T00:19:26.780Z,0.50
2019-03-08T00:21:56.448Z,0.47
2019-03-08T00:24:24.539Z,0.30
2019-03-08T00:26:52.487Z,0.80
2019-03-08T00:29:20.846Z,0.70
2019-03-08T00:31:49.017Z,0.30
2019-03-08T00:34:17.173Z,0.45
2019-03-08T00:36:45.271Z,0.40
2019-03-08T00:39:13.402Z,0.60
2019-03-08T00:41:42.061Z,0.50
2019-03-08T00:44:10.393Z,0.75
2019-03-08T00:46:38.540Z,0.47
2019-03-08T00:49:08.042Z,0.40
2019-03-08T00:51:36.296Z,0.68
2019-03-08T00:54:04.364Z,0.45
2019-03-08T00:56:32.512Z,0.40
2019-03-08T00:59:01.066Z,0.50
2019-03-08T01:01:29.325Z,0.55
2019-03-08T01:03:57.503Z,0.45
2019-03-08T01:06:25.839Z,0.62
2019-03-08T01:08:54.021Z,0.47
2019-03-08T01:11:22.169Z,0.40
2019-03-08T01:13:50.267Z,0.50
2019-03-08T01:16:20.125Z,0.72
2019-03-08T01:18:48.301Z,0.40
2019-03-08T01:21:16.440Z,0.50
2019-03-08T01:23:44.570Z,0.42
2019-03-08T01:26:12.792Z,0.30
2019-03-08T01:28:40.924Z,0.30
2019-03-08T01:31:09.096Z,0.53
2019-03-08T01:33:37.262Z,0.30
2019-03-08T01:36:05.432Z,0.50
2019-03-08T01:38:33.839Z,0.50
2019-03-08T01:41:02.005Z,0.33
2019-03-08T01:43:30.133Z,0.57
2019-03-08T01:45:58.265Z,0.47
2019-03-08T01:48:26.423Z,0.60
2019-03-08T01:50:54.493Z,0.50
2019-03-08T01:53:22.579Z,0.60
2019-03-08T01:55:50.796Z,0.72
2019-03-08T01:58:18.944Z,0.62
2019-03-08T02:00:47.142Z,0.70
2019-03-08T02:03:17.123Z,0.60
2019-03-08T02:05:45.164Z,0.80
2019-03-08T02:08:13.335Z,0.68
2019-03-08T02:10:41.508Z,0.50
2019-03-08T02:13:09.656Z,0.62
2019-03-08T02:15:37.906Z,0.72
2019-03-08T02:18:06.060Z,0.65
2019-03-08T02:20:34.291Z,0.60
2019-03-08T02:23:03.970Z,0.80
2019-03-08T02:25:32.129Z,0.90
2019-03-08T02:28:00.649Z,0.80
2019-03-08T02:30:28.832Z,0.80
2019-03-08T02:32:57.030Z,0.70
2019-03-08T02:35:25.090Z,0.85
2019-03-08T02:37:53.209Z,0.80
2019-03-08T02:40:26.527Z,0.72
2019-03-08T02:42:54.698Z,0.95
2019-03-08T02:45:22.954Z,0.90
2019-03-08T02:47:51.124Z,0.90
2019-03-08T02:50:20.366Z,0.88
2019-03-08T02:52:48.549Z,0.80
2019-03-08T02:55:16.807Z,1.12
2019-03-08T02:57:44.885Z,0.80
2019-03-08T03:00:14.207Z,0.90
2019-03-08T03:02:42.283Z,0.93
2019-03-08T03:05:10.581Z,1.00
2019-03-08T03:07:38.651Z,0.75
2019-03-08T03:10:07.646Z,0.80
2019-03-08T03:12:35.902Z,0.70
2019-03-08T03:15:05.516Z,0.95
2019-03-08T03:17:34.752Z,0.90
2019-03-08T03:20:03.244Z,0.90
2019-03-08T03:22:31.482Z,0.85
2019-03-08T03:24:59.612Z,0.90
2019-03-08T03:27:27.990Z,0.80
2019-03-08T03:29:56.173Z,0.60
2019-03-08T03:32:24.359Z,0.60
2019-03-08T03:34:52.534Z,0.90
2019-03-08T03:37:20.635Z,0.80
2019-03-08T03:39:49.025Z,0.85
2019-03-08T03:42:17.197Z,0.65
2019-03-08T03:44:45.667Z,0.70
2019-03-08T03:47:14.911Z,0.70
2019-03-08T03:49:43.087Z,0.80
2019-03-08T03:52:11.338Z,0.70
2019-03-08T03:54:39.509Z,0.60
2019-03-08T03:57:07.646Z,0.68
2019-03-08T03:59:36.062Z,0.85
2019-03-08T04:02:04.186Z,0.85
2019-03-08T04:04:32.367Z,0.70
2019-03-08T04:07:00.502Z,0.60
2019-03-08T04:09:29.141Z,0.60
2019-03-08T04:11:57.293Z,0.80
2019-03-08T04:14:25.459Z,0.70
2019-03-08T04:16:53.659Z,0.80
2019-03-08T04:19:21.757Z,0.70
2019-03-08T04:21:49.827Z,0.60
2019-03-08T04:24:17.971Z,0.78
2019-03-08T04:26:46.027Z,0.60
2019-03-08T04:29:14.280Z,0.50
2019-03-08T04:31:42.349Z,0.55
2019-03-08T04:34:10.462Z,0.90
2019-03-08T04:36:38.548Z,0.90
2019-03-08T04:39:08.063Z,0.98
2019-03-08T04:41:36.278Z,0.80
2019-03-08T04:44:04.626Z,1.42
2019-03-08T04:46:32.701Z,1.30
2019-03-08T04:49:00.909Z,1.20
2019-03-08T04:51:29.064Z,1.10
2019-03-08T04:53:58.293Z,1.20
2019-03-08T04:56:26.391Z,0.98
2019-03-08T04:58:54.851Z,0.72
2019-03-08T05:01:22.986Z,1.10
2019-03-08T05:03:51.140Z,0.90
2019-03-08T05:06:19.216Z,0.78
2019-03-08T05:08:47.370Z,0.85
2019-03-08T05:11:16.544Z,0.90
2019-03-08T05:13:44.634Z,1.05
2019-03-08T05:16:12.854Z,1.02
2019-03-08T05:18:40.943Z,0.82
2019-03-08T05:21:09.110Z,0.82
2019-03-08T05:23:37.268Z,1.20
2019-03-08T05:26:05.447Z,0.70
2019-03-08T05:28:33.953Z,1.20
2019-03-08T05:31:02.016Z,0.90
2019-03-08T05:33:30.117Z,1.00
2019-03-08T05:35:58.255Z,0.93
2019-03-08T05:38:26.353Z,0.93
2019-03-08T05:40:54.910Z,0.70
2019-03-08T05:43:23.097Z,1.22
2019-03-08T05:45:51.618Z,0.98
2019-03-08T05:48:19.750Z,0.85
2019-03-08T05:50:47.866Z,0.70
2019-03-08T05:53:15.949Z,0.98
2019-03-08T05:55:45.248Z,0.80
2019-03-08T05:58:13.392Z,1.10
2019-03-08T06:00:41.476Z,0.72
2019-03-08T06:03:09.614Z,0.80
2019-03-08T06:05:37.746Z,1.00
2019-03-08T06:08:05.877Z,0.60
2019-03-08T06:10:34.511Z,0.60
2019-03-08T06:13:04.712Z,0.93
2019-03-08T06:15:32.948Z,0.88
2019-03-08T06:18:01.085Z,1.20
2019-03-08T06:20:29.327Z,0.80
2019-03-08T06:22:57.550Z,0.90
2019-03-08T06:25:25.687Z,0.75
2019-03-08T06:27:53.857Z,0.70
2019-03-08T06:30:21.998Z,0.85
2019-03-08T06:32:50.442Z,0.95
2019-03-08T06:35:18.597Z,0.70
2019-03-08T06:37:46.788Z,0.70
2019-03-08T06:40:14.977Z,1.10
2019-03-08T06:42:43.176Z,1.20
2019-03-08T06:45:16.670Z,1.00
2019-03-08T06:47:45.307Z,0.65
2019-03-08T06:50:14.067Z,1.02
2019-03-08T06:52:43.164Z,0.40
2019-03-08T06:55:12.401Z,0.88
2019-03-08T06:57:40.900Z,0.70
2019-03-08T07:00:12.190Z,1.30
2019-03-08T07:02:40.578Z,0.90
2019-03-08T07:05:08.980Z,0.80
2019-03-08T07:07:37.121Z,0.70
2019-03-08T07:10:06.638Z,1.67
2019-03-08T07:12:34.747Z,0.70
2019-03-08T07:15:03.277Z,1.00
2019-03-08T07:17:31.789Z,1.00
2019-03-08T07:20:01.619Z,0.90
2019-03-08T07:25:28.861Z,0.75
2019-03-08T07:28:07.195Z,1.30
2019-03-08T07:30:58.025Z,1.15
2019-03-08T07:33:39.938Z,1.05
2019-03-08T07:36:21.829Z,0.80
2019-03-08T07:38:57.545Z,0.70
2019-03-08T07:41:28.857Z,0.50
2019-03-08T07:44:04.760Z,1.40
2019-03-08T07:46:51.202Z,1.32
2019-03-08T07:49:30.064Z,1.60
2019-03-08T07:51:59.952Z,0.95
2019-03-08T07:54:35.806Z,0.90
2019-03-08T07:57:05.657Z,1.10
2019-03-08T07:59:38.229Z,1.07
2019-03-08T08:02:10.970Z,0.90
2019-03-08T08:04:49.968Z,1.02
2019-03-08T08:07:26.666Z,1.00
2019-03-08T08:09:56.408Z,1.20
2019-03-08T08:12:55.531Z,1.42
2019-03-08T08:15:25.324Z,1.02
2019-03-08T08:18:03.255Z,1.32
2019-03-08T08:20:36.666Z,1.20
2019-03-08T08:23:09.559Z,1.50
2019-03-08T08:25:51.414Z,1.65
2019-03-08T08:28:24.606Z,1.40
2019-03-08T08:31:09.566Z,1.30
2019-03-08T08:33:51.341Z,1.72
2019-03-08T08:36:27.375Z,1.82
2019-03-08T08:39:00.257Z,1.55
2019-03-08T08:41:32.721Z,1.30
2019-03-08T08:44:02.475Z,1.37
2019-03-08T08:46:38.053Z,1.72
2019-03-08T08:49:20.057Z,1.77
2019-03-08T08:51:55.827Z,2.05
2019-03-08T08:54:42.346Z,2.08
2019-03-08T08:57:23.892Z,1.72
2019-03-08T08:59:59.302Z,1.42
2019-03-08T09:02:31.836Z,2.50
2019-03-08T09:05:08.507Z,2.12
2019-03-08T09:07:38.247Z,2.30
2019-03-08T09:10:12.303Z,2.10
2019-03-08T09:12:48.059Z,1.47
2019-03-08T09:15:19.615Z,2.20
2019-03-08T09:17:52.545Z,1.37
2019-03-08T09:20:38.715Z,1.55
2019-03-08T09:23:11.198Z,2.25
2019-03-08T09:25:57.440Z,1.72
2019-03-08T09:28:30.226Z,1.70
2019-03-08T09:31:02.860Z,1.82
2019-03-08T09:33:38.844Z,1.30
2019-03-08T09:36:08.626Z,1.77
2019-03-08T09:38:54.894Z,1.60
2019-03-08T09:41:27.386Z,1.60
2019-03-08T09:44:05.992Z,1.98
2019-03-08T09:46:38.633Z,1.55
2019-03-08T09:49:20.315Z,1.40
2019-03-08T09:51:51.595Z,1.57
2019-03-08T09:54:30.220Z,1.55
2019-03-08T09:57:00.028Z,1.90
2019-03-08T09:59:42.347Z,1.02
2019-03-08T10:02:12.068Z,1.57
2019-03-08T10:04:42.816Z,1.40
2019-03-08T10:09:47.224Z,1.20
2019-03-08T10:12:19.532Z,0.90
2019-03-08T10:15:01.470Z,1.35
2019-03-08T10:17:38.395Z,0.80
2019-03-08T10:20:10.235Z,0.90
2019-03-08T10:22:40.233Z,1.72
2019-03-08T10:25:16.203Z,0.80
2019-03-08T10:27:52.163Z,1.20
2019-03-08T10:30:39.735Z,0.90
2019-03-08T10:33:15.433Z,1.07
2019-03-08T10:36:04.340Z,0.95
2019-03-08T10:38:46.355Z,1.07
2019-03-08T10:41:16.186Z,1.20
2019-03-08T10:43:49.088Z,1.07
2019-03-08T10:46:35.732Z,0.95
2019-03-08T10:49:17.580Z,1.00
2019-03-08T10:51:53.650Z,0.88
2019-03-08T10:54:29.329Z,1.02
2019-03-08T10:57:02.310Z,1.20
2019-03-08T10:59:41.044Z,1.05
2019-03-08T11:02:19.751Z,1.20
2019-03-08T11:04:52.382Z,1.10
2019-03-08T11:07:22.119Z,1.05
2019-03-08T11:10:00.701Z,0.90
2019-03-08T11:12:46.751Z,0.93
2019-03-08T11:15:25.777Z,1.60
2019-03-08T11:17:55.699Z,1.80
2019-03-08T11:20:34.638Z,1.47
2019-03-08T11:23:23.013Z,1.10
2019-03-08T11:25:52.772Z,1.27
2019-03-08T11:28:22.490Z,1.50
2019-03-08T11:30:55.532Z,1.20
2019-03-08T11:33:31.483Z,1.10
2019-03-08T11:36:01.181Z,1.10
2019-03-08T11:38:31.005Z,0.87
2019-03-08T11:41:17.599Z,1.10
2019-03-08T11:43:47.590Z,1.40
2019-03-08T11:46:17.312Z,1.30
2019-03-08T11:48:47.057Z,1.00
2019-03-08T11:51:33.402Z,0.90
2019-03-08T11:54:19.187Z,0.65
2019-03-08T11:56:55.811Z,0.75
2019-03-08T11:59:36.694Z,1.10
2019-03-08T12:02:12.755Z,0.70
2019-03-08T12:04:42.522Z,0.72
2019-03-08T12:07:21.493Z,0.35
2019-03-08T12:09:51.273Z,0.30
2019-03-08T12:12:23.870Z,0.43
2019-03-08T12:15:00.077Z,0.40
2019-03-08T12:17:29.973Z,0.40
2019-03-08T12:19:59.787Z,0.60
2019-03-08T12:22:46.385Z,0.57
2019-03-08T12:25:18.883Z,0.78
2019-03-08T12:27:48.651Z,0.98
2019-03-08T12:30:27.221Z,0.68
2019-03-08T12:33:13.561Z,0.60
2019-03-08T12:35:43.310Z,0.60
2019-03-08T12:38:15.852Z,0.73
2019-03-08T12:41:01.978Z,0.88
2019-03-08T12:43:48.589Z,0.53
2019-03-08T12:46:21.326Z,0.60
2019-03-08T12:48:57.435Z,0.80
2019-03-08T12:51:30.026Z,0.72
2019-03-08T12:53:59.867Z,0.93
2019-03-08T12:56:38.591Z,0.70
2019-03-08T12:59:24.816Z,0.70
2019-03-08T13:01:54.619Z,0.95
2019-03-08T13:04:30.474Z,1.40
2019-03-08T13:07:03.205Z,0.70
2019-03-08T13:09:49.520Z,0.80
2019-03-08T13:12:17.759Z,1.00
2019-03-08T13:14:45.929Z,1.40
2019-03-08T13:17:14.081Z,0.90
2019-03-08T13:19:42.219Z,0.80
2019-03-08T13:22:10.447Z,1.00
2019-03-08T13:24:38.593Z,1.05
2019-03-08T13:27:07.783Z,0.70
2019-03-08T13:29:36.293Z,0.53
2019-03-08T13:32:05.667Z,0.95
2019-03-08T13:34:33.863Z,0.62
2019-03-08T13:37:01.983Z,0.50
2019-03-08T13:39:30.199Z,0.88
2019-03-08T13:41:58.331Z,0.95
2019-03-08T13:44:26.486Z,0.75
2019-03-08T13:46:54.557Z,1.00
2019-03-08T13:49:23.524Z,0.62
2019-03-08T13:51:51.826Z,0.65
2019-03-08T13:54:20.348Z,0.55
2019-03-08T13:56:48.408Z,0.65
2019-03-08T13:59:16.471Z,0.60
2019-03-08T14:01:44.624Z,0.90
2019-03-08T14:04:12.927Z,0.82
2019-03-08T14:06:41.074Z,1.02
2019-03-08T14:09:10.335Z,1.12
2019-03-08T14:11:38.549Z,1.17
2019-03-08T14:14:06.655Z,0.90
2019-03-08T14:16:34.887Z,0.50
2019-03-08T14:19:03.403Z,1.10
2019-03-08T14:21:31.690Z,1.20
2019-03-08T14:23:59.741Z,0.82
2019-03-08T14:26:27.918Z,1.00
2019-03-08T14:28:56.088Z,0.95
2019-03-08T14:31:25.961Z,1.00
2019-03-08T14:33:54.290Z,0.85
2019-03-08T14:36:22.374Z,0.70
2019-03-08T14:38:50.710Z,0.65
2019-03-08T14:41:20.547Z,0.80
2019-03-08T14:43:53.899Z,0.90
2019-03-08T14:46:23.777Z,0.93
2019-03-08T14:48:51.954Z,0.90
2019-03-08T14:51:20.087Z,0.35
2019-03-08T14:53:48.305Z,0.88
2019-03-08T14:56:16.445Z,1.00
2019-03-08T14:58:44.612Z,0.60
2019-03-08T15:01:13.068Z,0.50
2019-03-08T15:03:43.889Z,0.80
2019-03-08T15:06:10.921Z,0.70
2019-03-08T15:08:39.076Z,0.35
2019-03-08T15:11:07.849Z,1.02
2019-03-08T15:13:36.131Z,0.68
2019-03-08T15:16:04.384Z,0.88
2019-03-08T15:18:32.562Z,1.00
2019-03-08T15:21:00.678Z,0.93
2019-03-08T15:23:28.780Z,0.70
2019-03-08T15:25:57.141Z,0.50
2019-03-08T15:28:25.554Z,0.78
2019-03-08T15:30:53.693Z,0.55
2019-03-08T15:33:21.924Z,0.55
2019-03-08T15:35:50.148Z,0.70
2019-03-08T15:38:18.340Z,0.80
2019-03-08T15:40:46.500Z,0.82
2019-03-08T15:43:16.276Z,0.78
2019-03-08T15:45:46.148Z,1.10
2019-03-08T15:48:15.629Z,0.70
2019-03-08T15:50:46.644Z,0.82
2019-03-08T15:53:13.826Z,0.70
2019-03-08T15:55:42.201Z,1.47
2019-03-08T15:58:10.259Z,0.30
2019-03-08T16:00:38.344Z,0.72
2019-03-08T16:03:06.484Z,0.50
2019-03-08T16:05:34.657Z,0.70
2019-03-08T16:08:03.934Z,0.60
2019-03-08T16:10:32.316Z,0.60
2019-03-08T16:13:01.993Z,0.57
2019-03-08T16:15:30.196Z,0.57
2019-03-08T16:18:01.319Z,0.40
2019-03-08T16:20:29.544Z,0.50
2019-03-08T16:22:57.851Z,0.60
2019-03-08T16:25:25.904Z,0.45
2019-03-08T16:27:54.138Z,0.75
2019-03-08T16:30:28.189Z,1.00
2019-03-08T16:32:58.661Z,0.95
2019-03-08T16:35:28.562Z,0.57
2019-03-08T16:38:13.245Z,0.60
2019-03-08T16:40:49.286Z,0.60
2019-03-08T16:43:19.328Z,0.20
2019-03-08T16:45:58.388Z,0.40
2019-03-08T16:48:28.011Z,0.30
2019-03-08T16:51:03.551Z,0.40
2019-03-08T16:53:45.742Z,0.30
2019-03-08T16:56:15.557Z,0.20
2019-03-08T16:58:48.234Z,0.20
2019-03-08T17:01:28.399Z,0.20
2019-03-08T17:04:07.216Z,0.20
2019-03-08T17:06:39.779Z,0.25
2019-03-08T17:09:11.067Z,0.15
2019-03-08T17:11:54.467Z,0.30
2019-03-08T17:14:36.301Z,0.30
2019-03-08T17:17:18.125Z,0.40
2019-03-08T17:20:03.264Z,0.30
2019-03-08T17:25:14.208Z,0.50
2019-03-08T17:28:00.615Z,0.30
2019-03-08T17:30:49.993Z,0.50
2019-03-08T17:33:31.870Z,0.20
2019-03-08T17:36:03.819Z,0.20
2019-03-08T17:38:42.900Z,0.30
2019-03-08T17:41:18.414Z,0.10
2019-03-08T17:43:55.588Z,0.30
2019-03-08T17:46:42.102Z,0.20
2019-03-08T17:49:18.375Z,0.25
2019-03-08T17:51:50.950Z,0.20
2019-03-08T17:54:20.689Z,0.20
2019-03-08T17:56:50.471Z,0.30
2019-03-08T17:59:29.316Z,0.10
2019-03-08T18:02:07.880Z,0.10
2019-03-08T18:04:37.674Z,0.23
2019-03-08T18:07:11.526Z,0.20
2019-03-08T18:09:44.978Z,0.10
2019-03-08T18:12:31.945Z,0.20
2019-03-08T18:15:08.275Z,0.10
2019-03-08T18:17:41.621Z,0.30
2019-03-08T18:20:24.153Z,0.10
2019-03-08T18:23:10.584Z,0.20
2019-03-08T18:25:40.342Z,0.20
2019-03-08T18:28:12.779Z,0.10
2019-03-08T18:31:00.751Z,0.20
2019-03-08T18:33:39.833Z,0.20
2019-03-08T18:36:10.615Z,0.30
2019-03-08T18:38:46.557Z,0.20
2019-03-08T18:41:19.044Z,0.35
2019-03-08T18:43:48.819Z,0.30
2019-03-08T18:46:18.632Z,0.30
2019-03-08T18:48:56.456Z,0.20
2019-03-08T18:51:36.550Z,0.28
2019-03-08T18:54:06.408Z,0.40
2019-03-08T18:56:45.291Z,0.30
2019-03-08T18:59:30.157Z,0.35
2019-03-08T19:02:01.019Z,0.30
2019-03-08T19:04:49.269Z,0.30
2019-03-08T19:07:19.412Z,0.20
2019-03-08T19:12:27.496Z,0.35
2019-03-08T19:15:00.350Z,0.37
2019-03-08T19:17:35.883Z,0.30
2019-03-08T19:20:13.334Z,0.37
2019-03-08T19:22:46.178Z,0.30
2019-03-08T19:25:15.970Z,0.35
2019-03-08T19:27:47.035Z,0.23
2019-03-08T19:30:20.121Z,0.30
2019-03-08T19:33:03.318Z,0.20
2019-03-08T19:35:33.112Z,0.20
2019-03-08T19:38:19.556Z,0.20
2019-03-08T19:40:55.063Z,0.20
2019-03-08T19:43:30.851Z,0.30
2019-03-08T19:46:06.649Z,0.28
2019-03-08T19:48:52.947Z,0.30
2019-03-08T19:51:25.879Z,0.30
2019-03-08T19:54:10.706Z,0.30
2019-03-08T19:56:55.508Z,0.30
2019-03-08T19:59:25.583Z,0.20
2019-03-08T20:02:10.526Z,0.25
2019-03-08T20:04:40.348Z,0.30
2019-03-08T20:07:13.113Z,0.30
2019-03-08T20:10:02.135Z,0.20
2019-03-08T20:12:33.513Z,0.23
2019-03-08T20:15:09.251Z,0.30
2019-03-08T20:17:45.302Z,0.20
2019-03-08T20:20:24.266Z,0.20
2019-03-08T20:22:54.434Z,0.30
2019-03-08T20:25:39.499Z,0.30
2019-03-08T20:28:10.429Z,0.20
2019-03-08T20:30:49.369Z,0.30
2019-03-08T20:33:19.383Z,0.37
2019-03-08T20:35:55.835Z,0.30
2019-03-08T20:38:46.722Z,0.40
2019-03-08T20:41:31.558Z,0.40
2019-03-08T20:44:08.236Z,0.42
2019-03-08T20:46:38.345Z,0.60
2019-03-08T20:49:06.481Z,0.47
2019-03-08T20:51:34.677Z,0.40
2019-03-08T20:54:02.873Z,0.40
2019-03-08T20:56:31.105Z,0.50
2019-03-08T20:58:59.677Z,0.40
2019-03-08T21:01:27.831Z,0.80
2019-03-08T21:03:55.950Z,0.88
2019-03-08T21:06:24.106Z,0.60
2019-03-08T21:08:52.381Z,0.80
2019-03-08T21:11:20.606Z,0.70
2019-03-08T21:13:48.751Z,0.60
2019-03-08T21:16:16.822Z,0.60
2019-03-08T21:18:45.041Z,0.60
2019-03-08T21:21:13.187Z,0.60
2019-03-08T21:23:41.358Z,0.50
2019-03-08T21:26:09.502Z,1.00
2019-03-08T21:28:38.024Z,1.05
2019-03-08T21:31:06.181Z,0.70
2019-03-08T21:33:34.276Z,0.80
2019-03-08T21:36:02.877Z,0.65
2019-03-08T21:38:30.992Z,0.78
2019-03-08T21:40:59.102Z,0.80
2019-03-08T21:43:28.468Z,0.95
2019-03-08T21:45:56.539Z,0.82
2019-03-08T21:48:24.723Z,0.80
2019-03-08T21:50:52.908Z,0.90
2019-03-08T21:53:20.973Z,1.67
2019-03-08T21:55:49.140Z,2.08
2019-03-08T21:58:17.212Z,1.75
2019-03-08T22:00:45.327Z,1.35
2019-03-08T22:03:13.575Z,1.10
2019-03-08T22:05:42.483Z,1.30
2019-03-08T22:08:17.181Z,1.30
2019-03-08T22:10:48.126Z,1.10
2019-03-08T22:13:16.193Z,0.90
2019-03-08T22:15:44.263Z,0.70
2019-03-08T22:18:12.323Z,0.60
2019-03-08T22:20:40.515Z,0.62
2019-03-08T22:23:09.988Z,0.50
2019-03-08T22:25:38.075Z,0.60
2019-03-08T22:28:06.218Z,0.57
2019-03-08T22:30:34.350Z,0.40
2019-03-08T22:33:02.813Z,0.62
2019-03-08T22:35:30.973Z,0.60
2019-03-08T22:37:59.566Z,0.68
2019-03-08T22:40:27.715Z,0.72
2019-03-08T22:42:55.953Z,0.68
2019-03-08T22:45:24.111Z,0.60
2019-03-08T22:47:52.255Z,0.70
2019-03-08T22:50:20.701Z,0.80
2019-03-08T22:52:48.802Z,0.70
2019-03-08T22:55:16.945Z,0.68
2019-03-08T22:57:45.005Z,0.80
2019-03-08T23:00:21.663Z,1.10
2019-03-08T23:02:51.526Z,0.90
2019-03-08T23:05:20.485Z,0.88
2019-03-08T23:07:48.630Z,0.90
2019-03-08T23:10:16.805Z,0.75
2019-03-08T23:12:47.542Z,0.93
2019-03-08T23:15:16.067Z,1.40
2019-03-08T23:17:45.063Z,1.10
2019-03-08T23:20:13.146Z,1.57
2019-03-08T23:22:41.321Z,1.30
2019-03-08T23:25:09.454Z,1.00
2019-03-08T23:27:41.923Z,1.00
2019-03-08T23:30:11.986Z,1.20
2019-03-08T23:32:41.008Z,1.40
2019-03-08T23:35:09.224Z,1.30
2019-03-08T23:37:37.329Z,1.02
2019-03-08T23:40:06.332Z,1.12
2019-03-08T23:42:34.474Z,1.10
2019-03-08T23:45:03.544Z,1.35
2019-03-08T23:47:31.936Z,1.07
2019-03-08T23:50:00.077Z,1.10
2019-03-08T23:52:28.606Z,1.17
2019-03-08T23:54:57.065Z,1.00
2019-03-08T23:57:25.225Z,0.98
2019-03-08T23:59:53.408Z,0.90
